createdAt,value
2023-04-06T00:01:41.333Z,2.19
2023-04-06T00:04:13.689Z,2.11
2023-04-06T00:06:47.626Z,2.10
2023-04-06T00:09:19.511Z,2.09
2023-04-06T00:11:52.815Z,2.02
2023-04-06T00:14:24.895Z,2.01
2023-04-06T00:16:57.905Z,2.09
2023-04-06T00:19:30.191Z,2.16
2023-04-06T00:22:03.792Z,2.10
2023-04-06T00:24:36.041Z,2.09
2023-04-06T00:27:08.731Z,2.08
2023-04-06T00:29:41.632Z,2.12
2023-04-06T00:32:13.928Z,2.14
2023-04-06T00:34:46.743Z,2.04
2023-04-06T00:37:20.102Z,2.06
2023-04-06T00:39:53.087Z,1.98
2023-04-06T00:42:28.349Z,2.03
2023-04-06T00:45:02.728Z,1.97
2023-04-06T00:47:35.971Z,2.00
2023-04-06T00:50:08.684Z,1.98
2023-04-06T00:52:41.884Z,1.92
2023-04-06T00:55:15.443Z,1.93
2023-04-06T00:57:50.095Z,1.87
2023-04-06T01:00:23.258Z,1.84
2023-04-06T01:03:00.776Z,1.79
2023-04-06T01:08:45.049Z,1.79
2023-04-06T01:11:24.397Z,1.86
2023-04-06T01:13:58.492Z,1.88
2023-04-06T01:16:34.150Z,1.82
2023-04-06T01:19:18.949Z,1.78
2023-04-06T01:21:56.257Z,1.78
2023-04-06T01:24:38.041Z,1.78
2023-04-06T01:27:17.195Z,1.76
2023-04-06T01:30:11.613Z,1.68
2023-04-06T01:32:52.017Z,1.66
2023-04-06T01:35:37.035Z,1.65
2023-04-06T01:38:21.573Z,1.65
2023-04-06T01:40:56.076Z,1.62
2023-04-06T01:43:30.801Z,1.62
2023-04-06T01:46:09.762Z,1.52
2023-04-06T01:48:46.616Z,1.48
2023-04-06T01:51:27.654Z,1.59
2023-04-06T01:54:06.336Z,1.57
2023-04-06T01:56:53.496Z,1.49
2023-04-06T01:59:49.639Z,1.51
2023-04-06T02:02:27.969Z,1.48
2023-04-06T02:05:11.228Z,1.43
2023-04-06T02:07:44.102Z,1.33
2023-04-06T02:10:20.221Z,1.35
2023-04-06T02:12:52.120Z,1.34
2023-04-06T02:15:31.151Z,1.24
2023-04-06T02:18:03.968Z,1.30
2023-04-06T02:20:36.715Z,1.33
2023-04-06T02:23:08.610Z,1.31
2023-04-06T02:25:41.948Z,1.27
2023-04-06T02:28:14.341Z,1.23
2023-04-06T02:30:47.967Z,1.28
2023-04-06T02:33:20.141Z,1.28
2023-04-06T02:35:53.784Z,1.34
2023-04-06T02:38:25.682Z,1.33
2023-04-06T02:40:58.466Z,1.33
2023-04-06T02:43:34.353Z,1.27
2023-04-06T02:46:21.415Z,1.22
2023-04-06T02:48:54.095Z,1.17
2023-04-06T02:51:27.692Z,1.17
2023-04-06T02:54:05.029Z,1.14
2023-04-06T02:56:37.353Z,1.18
2023-04-06T02:59:09.929Z,1.04
2023-04-06T03:01:43.312Z,1.12
2023-04-06T03:04:15.694Z,1.17
2023-04-06T03:06:47.559Z,1.08
2023-04-06T03:09:29.656Z,1.17
2023-04-06T03:12:02.685Z,1.10
2023-04-06T03:14:49.452Z,1.08
2023-04-06T03:17:21.656Z,1.04
2023-04-06T03:19:54.560Z,0.99
2023-04-06T03:22:27.057Z,0.99
2023-04-06T03:25:02.251Z,1.01
2023-04-06T03:27:37.136Z,1.02
2023-04-06T03:30:10.952Z,1.12
2023-04-06T03:32:44.450Z,1.13
2023-04-06T03:35:16.368Z,1.13
2023-04-06T03:37:49.050Z,1.18
2023-04-06T03:40:21.789Z,1.12
2023-04-06T03:42:54.220Z,1.05
2023-04-06T03:45:26.274Z,1.09
2023-04-06T03:47:59.127Z,1.00
2023-04-06T03:50:31.083Z,0.95
2023-04-06T03:53:05.124Z,1.01
2023-04-06T03:55:37.893Z,1.03
2023-04-06T03:58:09.750Z,1.08
2023-04-06T04:00:42.450Z,1.01
2023-04-06T04:03:14.356Z,1.11
2023-04-06T04:05:48.109Z,1.08
2023-04-06T04:08:20.121Z,1.05
2023-04-06T04:10:52.914Z,1.04
2023-04-06T04:13:24.927Z,1.05
2023-04-06T04:18:51.230Z,1.04
2023-04-06T04:21:23.579Z,0.97
2023-04-06T04:23:56.044Z,0.94
2023-04-06T04:26:27.915Z,1.01
2023-04-06T04:29:00.660Z,0.97
2023-04-06T04:31:33.489Z,1.00
2023-04-06T04:34:09.757Z,0.93
2023-04-06T04:36:43.032Z,0.91
2023-04-06T04:39:20.164Z,0.93
2023-04-06T04:41:57.459Z,0.82
2023-04-06T04:44:30.152Z,0.76
2023-04-06T04:47:02.384Z,0.75
2023-04-06T04:49:45.949Z,0.80
2023-04-06T04:52:22.883Z,0.78
2023-04-06T04:55:04.070Z,0.83
2023-04-06T04:57:36.688Z,0.88
2023-04-06T05:03:06.477Z,0.94
2023-04-06T05:05:45.674Z,0.79
2023-04-06T05:08:20.475Z,1.04
2023-04-06T05:10:54.313Z,1.01
2023-04-06T05:13:27.334Z,1.19
2023-04-06T05:16:01.149Z,1.21
2023-04-06T05:18:37.073Z,1.40
2023-04-06T05:21:12.284Z,1.44
2023-04-06T05:23:57.002Z,1.42
2023-04-06T05:26:29.760Z,1.45
2023-04-06T05:29:08.493Z,1.52
2023-04-06T05:31:42.834Z,1.47
2023-04-06T05:34:16.178Z,1.47
2023-04-06T05:36:49.140Z,1.51
2023-04-06T05:39:25.248Z,1.55
2023-04-06T05:41:59.730Z,1.70
2023-04-06T05:44:43.680Z,1.77
2023-04-06T05:47:20.017Z,1.75
2023-04-06T05:49:57.490Z,1.82
2023-04-06T05:52:44.523Z,1.74
2023-04-06T05:55:18.833Z,1.63
2023-04-06T05:57:57.245Z,1.65
2023-04-06T06:00:30.600Z,1.63
2023-04-06T06:03:09.828Z,1.74
2023-04-06T06:05:45.363Z,1.69
2023-04-06T06:08:24.282Z,1.84
2023-04-06T06:10:57.862Z,1.91
2023-04-06T06:13:31.372Z,1.95
2023-04-06T06:16:06.166Z,2.04
2023-04-06T06:18:45.366Z,2.23
2023-04-06T06:21:18.096Z,2.29
2023-04-06T06:23:52.693Z,2.43
2023-04-06T06:26:28.533Z,2.52
2023-04-06T06:29:01.157Z,2.62
2023-04-06T06:31:34.991Z,2.73
2023-04-06T06:34:07.886Z,2.81
2023-04-06T06:36:41.790Z,2.90
2023-04-06T06:39:16.987Z,2.83
2023-04-06T06:41:48.868Z,3.01
2023-04-06T06:44:22.988Z,3.18
2023-04-06T06:46:55.778Z,3.38
2023-04-06T06:49:29.756Z,3.40
2023-04-06T06:52:02.633Z,3.57
2023-04-06T06:54:36.012Z,3.93
2023-04-06T06:57:08.839Z,4.27
2023-04-06T06:59:41.510Z,4.30
2023-04-06T07:02:14.552Z,4.24
2023-04-06T07:04:50.682Z,4.31
2023-04-06T07:07:26.082Z,4.48
2023-04-06T07:09:58.510Z,4.89
2023-04-06T07:12:30.527Z,5.80
2023-04-06T07:15:03.753Z,6.49
2023-04-06T07:17:35.702Z,7.18
2023-04-06T07:20:09.535Z,8.07
2023-04-06T07:22:44.107Z,9.37
2023-04-06T07:25:18.041Z,9.54
2023-04-06T07:27:49.884Z,9.64
2023-04-06T07:30:26.773Z,9.07
2023-04-06T07:33:00.084Z,9.92
2023-04-06T07:35:34.567Z,10.60
2023-04-06T07:38:07.045Z,12.60
2023-04-06T07:40:41.980Z,14.52
2023-04-06T07:43:17.570Z,16.53
2023-04-06T07:45:50.073Z,16.70
2023-04-06T07:48:22.748Z,13.90
2023-04-06T07:51:04.549Z,13.88
2023-04-06T07:53:38.679Z,13.06
2023-04-06T07:56:11.944Z,12.56
2023-04-06T07:58:44.524Z,13.12
2023-04-06T08:01:16.817Z,13.62
2023-04-06T08:03:50.387Z,15.48
2023-04-06T08:06:23.417Z,14.94
2023-04-06T08:08:58.279Z,14.87
2023-04-06T08:11:30.978Z,15.71
2023-04-06T08:14:03.386Z,16.30
2023-04-06T08:16:36.054Z,17.79
2023-04-06T08:19:11.085Z,16.74
2023-04-06T08:21:43.496Z,16.35
2023-04-06T08:24:20.029Z,17.18
2023-04-06T08:26:52.805Z,17.71
2023-04-06T08:29:25.410Z,17.14
2023-04-06T08:31:57.390Z,17.61
2023-04-06T08:34:30.815Z,16.67
2023-04-06T08:37:02.701Z,16.59
2023-04-06T08:39:36.581Z,16.57
2023-04-06T08:42:21.810Z,17.52
2023-04-06T08:44:54.911Z,16.86
2023-04-06T08:47:29.022Z,16.25
2023-04-06T08:50:06.409Z,16.82
2023-04-06T08:52:39.069Z,16.46
2023-04-06T08:55:12.569Z,15.72
2023-04-06T08:57:47.505Z,15.24
2023-04-06T09:00:20.289Z,16.29
2023-04-06T09:02:55.523Z,16.57
2023-04-06T09:05:49.876Z,17.54
2023-04-06T09:08:24.337Z,19.82
2023-04-06T09:10:56.611Z,19.72
2023-04-06T09:13:29.294Z,17.95
2023-04-06T09:16:03.673Z,18.05
2023-04-06T09:18:36.302Z,17.52
2023-04-06T09:21:09.337Z,17.77
2023-04-06T09:23:42.336Z,17.18
2023-04-06T09:26:18.553Z,18.35
2023-04-06T09:28:54.350Z,19.43
2023-04-06T09:31:29.301Z,21.09
2023-04-06T09:34:03.076Z,19.50
2023-04-06T09:36:41.264Z,17.90
2023-04-06T09:39:14.592Z,18.83
2023-04-06T09:41:52.446Z,20.12
2023-04-06T09:44:25.449Z,19.94
2023-04-06T09:47:00.813Z,18.52
2023-04-06T09:49:36.598Z,17.64
2023-04-06T09:52:12.332Z,16.41
2023-04-06T09:54:46.604Z,16.16
2023-04-06T09:57:38.864Z,16.63
2023-04-06T10:00:15.841Z,16.86
2023-04-06T10:03:00.174Z,18.08
2023-04-06T10:05:52.854Z,17.98
2023-04-06T10:08:30.916Z,17.63
2023-04-06T10:11:07.009Z,18.44
2023-04-06T10:13:38.947Z,17.63
2023-04-06T10:16:11.709Z,16.51
2023-04-06T10:18:56.637Z,17.40
2023-04-06T10:21:30.531Z,17.69
2023-04-06T10:24:10.837Z,18.63
2023-04-06T10:26:43.437Z,17.92
2023-04-06T10:29:15.334Z,18.74
2023-04-06T10:31:50.506Z,18.60
2023-04-06T10:34:22.842Z,18.41
2023-04-06T10:36:54.688Z,18.25
2023-04-06T10:39:28.271Z,17.21
2023-04-06T10:42:07.831Z,17.34
2023-04-06T10:44:46.044Z,17.55
2023-04-06T10:47:21.186Z,17.01
2023-04-06T10:49:53.766Z,17.99
2023-04-06T10:52:25.825Z,18.64
2023-04-06T10:54:58.518Z,17.91
2023-04-06T10:57:31.848Z,19.03
2023-04-06T11:00:07.337Z,18.41
2023-04-06T11:02:39.338Z,19.39
2023-04-06T11:05:14.543Z,19.57
2023-04-06T11:07:46.515Z,19.10
2023-04-06T11:10:25.122Z,18.10
2023-04-06T11:12:57.829Z,17.82
2023-04-06T11:15:38.199Z,18.69
2023-04-06T11:18:12.489Z,17.90
2023-04-06T11:20:50.238Z,17.76
2023-04-06T11:23:26.417Z,17.02
2023-04-06T11:25:59.461Z,17.89
2023-04-06T11:28:31.918Z,17.40
2023-04-06T11:31:04.130Z,18.38
2023-04-06T11:33:39.009Z,18.44
2023-04-06T11:36:10.892Z,17.92
2023-04-06T11:38:44.566Z,16.97
2023-04-06T11:41:16.942Z,16.35
2023-04-06T11:43:49.603Z,15.50
2023-04-06T11:46:21.512Z,17.00
2023-04-06T11:48:54.550Z,17.64
2023-04-06T11:51:27.414Z,17.28
2023-04-06T11:54:00.017Z,17.29
2023-04-06T11:56:31.996Z,16.65
2023-04-06T11:59:05.055Z,17.45
2023-04-06T12:01:46.670Z,16.84
2023-04-06T12:04:19.219Z,17.24
2023-04-06T12:06:51.197Z,17.27
2023-04-06T12:09:23.930Z,16.58
2023-04-06T12:11:56.933Z,17.12
2023-04-06T12:14:31.983Z,17.04
2023-04-06T12:17:03.987Z,16.98
2023-04-06T12:19:36.535Z,16.43
2023-04-06T12:22:09.193Z,16.24
2023-04-06T12:24:41.768Z,16.01
2023-04-06T12:27:13.616Z,16.26
2023-04-06T12:29:46.423Z,15.75
2023-04-06T12:32:18.344Z,15.99
2023-04-06T12:34:53.354Z,15.96
2023-04-06T12:37:25.599Z,15.65
2023-04-06T12:39:58.134Z,15.56
2023-04-06T12:42:30.089Z,15.43
2023-04-06T12:45:02.620Z,15.57
2023-04-06T12:47:34.669Z,15.46
2023-04-06T12:50:07.994Z,15.68
2023-04-06T12:52:39.882Z,15.43
2023-04-06T12:55:12.458Z,15.00
2023-04-06T12:57:46.384Z,15.30
2023-04-06T13:00:19.536Z,15.96
2023-04-06T13:02:51.688Z,15.80
2023-04-06T13:05:25.520Z,15.98
2023-04-06T13:07:58.454Z,16.04
2023-04-06T13:10:31.051Z,16.16
2023-04-06T13:13:02.932Z,16.18
2023-04-06T13:15:37.508Z,15.08
2023-04-06T13:18:10.498Z,15.37
2023-04-06T13:20:43.797Z,15.38
2023-04-06T13:23:16.167Z,15.05
2023-04-06T13:25:48.714Z,15.22
2023-04-06T13:28:21.154Z,15.66
2023-04-06T13:30:54.113Z,15.53
2023-04-06T13:33:27.408Z,15.67
2023-04-06T13:35:59.935Z,15.75
2023-04-06T13:38:32.592Z,15.45
2023-04-06T13:41:05.008Z,15.69
2023-04-06T13:43:38.015Z,15.51
2023-04-06T13:46:10.577Z,15.22
2023-04-06T13:48:43.338Z,15.97
2023-04-06T13:51:16.230Z,15.62
2023-04-06T13:53:48.847Z,15.30
2023-04-06T13:56:21.008Z,15.34
2023-04-06T13:58:57.015Z,15.14
2023-04-06T14:01:29.463Z,15.53
2023-04-06T14:04:02.174Z,15.38
2023-04-06T14:06:34.180Z,15.28
2023-04-06T14:09:06.892Z,15.25
2023-04-06T14:11:39.073Z,15.32
2023-04-06T14:14:12.036Z,15.04
2023-04-06T14:16:45.142Z,15.10
2023-04-06T14:19:22.928Z,15.11
2023-04-06T14:21:55.408Z,15.07
2023-04-06T14:24:28.422Z,15.17
2023-04-06T14:27:02.009Z,15.06
2023-04-06T14:29:34.541Z,15.16
2023-04-06T14:32:06.402Z,15.36
2023-04-06T14:34:39.343Z,14.76
2023-04-06T14:37:11.894Z,14.41
2023-04-06T14:42:59.336Z,14.72
2023-04-06T14:45:40.157Z,14.42
2023-04-06T14:48:13.647Z,14.19
2023-04-06T14:50:59.288Z,14.45
2023-04-06T14:53:31.768Z,14.47
2023-04-06T14:56:05.020Z,14.79
2023-04-06T14:58:37.405Z,14.73
2023-04-06T15:01:09.839Z,14.33
2023-04-06T15:03:42.727Z,14.55
2023-04-06T15:06:17.079Z,15.04
2023-04-06T15:08:50.446Z,15.19
2023-04-06T15:11:23.421Z,14.91
2023-04-06T15:13:58.981Z,14.68
2023-04-06T15:16:33.586Z,14.72
2023-04-06T15:19:06.631Z,14.67
2023-04-06T15:21:58.967Z,14.72
2023-04-06T15:27:46.596Z,14.79
2023-04-06T15:30:20.444Z,14.64
2023-04-06T15:33:07.285Z,14.59
2023-04-06T15:35:41.325Z,14.15
2023-04-06T15:38:13.284Z,14.09
2023-04-06T15:40:49.422Z,14.08
2023-04-06T15:43:22.818Z,13.88
2023-04-06T15:45:54.804Z,13.99
2023-04-06T15:51:20.708Z,13.52
2023-04-06T15:53:53.975Z,13.60
2023-04-06T15:56:29.656Z,13.58
2023-04-06T15:59:04.050Z,13.56
2023-04-06T16:01:37.413Z,13.48
2023-04-06T16:04:11.683Z,13.12
2023-04-06T16:09:38.229Z,13.18
2023-04-06T16:12:10.685Z,13.29
2023-04-06T16:14:44.258Z,13.31
2023-04-06T16:17:16.966Z,13.40
2023-04-06T16:19:50.848Z,13.24
2023-04-06T16:22:23.039Z,13.37
2023-04-06T16:24:56.385Z,13.38
2023-04-06T16:27:28.712Z,13.32
2023-04-06T16:32:35.053Z,13.11
2023-04-06T16:35:09.112Z,13.02
2023-04-06T16:37:41.374Z,12.82
2023-04-06T16:40:15.399Z,12.88
2023-04-06T16:42:48.212Z,12.88
2023-04-06T16:45:20.889Z,12.91
2023-04-06T16:47:53.617Z,12.88
2023-04-06T16:50:25.516Z,12.80
2023-04-06T16:52:59.241Z,12.86
2023-04-06T16:55:50.036Z,12.72
2023-04-06T16:58:22.754Z,12.46
2023-04-06T17:00:55.896Z,12.36
2023-04-06T17:03:30.560Z,12.41
2023-04-06T17:06:04.245Z,12.23
2023-04-06T17:08:36.708Z,12.08
2023-04-06T17:11:10.262Z,12.07
2023-04-06T17:14:05.172Z,11.86
2023-04-06T17:16:37.786Z,11.70
2023-04-06T17:19:10.164Z,11.86
2023-04-06T17:21:43.229Z,11.82
2023-04-06T17:24:16.427Z,11.75
2023-04-06T17:26:48.727Z,11.83
2023-04-06T17:29:20.733Z,11.80
2023-04-06T17:31:56.094Z,11.66
2023-04-06T17:34:28.694Z,11.59
2023-04-06T17:37:02.219Z,11.48
2023-04-06T17:39:35.403Z,11.42
2023-04-06T17:42:08.806Z,11.42
2023-04-06T17:44:40.922Z,11.55
2023-04-06T17:47:13.634Z,11.47
2023-04-06T17:49:46.024Z,11.45
2023-04-06T17:52:18.322Z,11.42
2023-04-06T17:54:52.134Z,11.09
2023-04-06T17:57:25.828Z,11.14
2023-04-06T17:59:58.143Z,11.13
2023-04-06T18:02:31.134Z,11.18
2023-04-06T18:05:04.329Z,11.07
2023-04-06T18:07:37.353Z,11.04
2023-04-06T18:10:10.101Z,10.99
2023-04-06T18:12:43.256Z,10.89
2023-04-06T18:15:16.827Z,10.82
2023-04-06T18:17:51.404Z,10.73
2023-04-06T18:20:23.389Z,10.60
2023-04-06T18:22:56.210Z,10.48
2023-04-06T18:25:28.605Z,10.55
2023-04-06T18:28:01.315Z,10.48
2023-04-06T18:30:33.807Z,10.52
2023-04-06T18:33:06.459Z,10.57
2023-04-06T18:35:40.108Z,10.59
2023-04-06T18:38:12.408Z,10.68
2023-04-06T18:40:45.708Z,10.62
2023-04-06T18:43:18.491Z,10.50
2023-04-06T18:45:50.899Z,10.89
2023-04-06T18:48:23.635Z,11.22
2023-04-06T18:51:03.136Z,11.00
2023-04-06T18:53:37.297Z,10.94
2023-04-06T18:56:16.859Z,10.86
2023-04-06T18:58:49.529Z,10.94
2023-04-06T19:01:29.757Z,10.60
2023-04-06T19:04:02.949Z,10.43
2023-04-06T19:06:35.398Z,10.31
2023-04-06T19:09:08.226Z,10.29
2023-04-06T19:11:40.136Z,10.35
2023-04-06T19:14:13.017Z,10.49
2023-04-06T19:16:52.060Z,10.42
2023-04-06T19:22:18.366Z,10.53
2023-04-06T19:24:51.242Z,10.56
2023-04-06T19:27:23.168Z,10.53
2023-04-06T19:29:56.043Z,10.51
2023-04-06T19:32:28.027Z,10.58
2023-04-06T19:35:01.882Z,10.55
2023-04-06T19:37:36.156Z,10.61
2023-04-06T19:40:10.918Z,10.65
2023-04-06T19:42:43.276Z,10.61
2023-04-06T19:45:15.608Z,10.62
2023-04-06T19:47:47.531Z,10.49
2023-04-06T19:50:20.045Z,10.48
2023-04-06T19:52:53.232Z,10.51
2023-04-06T19:55:26.048Z,10.56
2023-04-06T19:57:58.303Z,10.45
2023-04-06T20:00:31.025Z,10.43
2023-04-06T20:03:03.447Z,10.48
2023-04-06T20:05:36.776Z,10.36
2023-04-06T20:08:09.410Z,10.33
2023-04-06T20:10:41.989Z,10.17
2023-04-06T20:13:14.682Z,10.14
2023-04-06T20:15:47.117Z,10.26
2023-04-06T20:18:19.478Z,10.07
2023-04-06T20:20:51.458Z,10.06
2023-04-06T20:26:17.825Z,10.01
2023-04-06T20:28:50.634Z,10.15
2023-04-06T20:31:27.677Z,10.21
2023-04-06T20:34:01.917Z,10.37
2023-04-06T20:36:37.523Z,10.38
2023-04-06T20:39:09.368Z,10.39
2023-04-06T20:41:42.676Z,10.44
2023-04-06T20:44:14.740Z,10.49
2023-04-06T20:46:49.226Z,10.35
2023-04-06T20:49:23.565Z,10.26
2023-04-06T20:51:56.223Z,10.30
2023-04-06T20:54:29.983Z,10.31
2023-04-06T20:57:02.747Z,10.23
2023-04-06T20:59:35.467Z,10.12
2023-04-06T21:02:07.724Z,10.09
2023-04-06T21:04:40.644Z,10.05
2023-04-06T21:07:12.734Z,10.06
2023-04-06T21:09:45.048Z,9.99
2023-04-06T21:12:17.125Z,10.17
2023-04-06T21:14:49.488Z,10.07
2023-04-06T21:17:22.564Z,10.04
2023-04-06T21:19:55.381Z,9.99
2023-04-06T21:22:27.267Z,9.93
2023-04-06T21:24:59.914Z,9.87
2023-04-06T21:27:32.250Z,9.96
2023-04-06T21:30:05.804Z,10.00
2023-04-06T21:32:37.728Z,9.88
2023-04-06T21:35:11.265Z,9.86
2023-04-06T21:37:43.539Z,9.92
2023-04-06T21:40:15.813Z,9.97
2023-04-06T21:42:47.693Z,10.05
2023-04-06T21:45:20.384Z,10.00
2023-04-06T21:47:52.959Z,10.00
2023-04-06T21:50:25.258Z,10.16
2023-04-06T21:52:57.624Z,10.25
2023-04-06T21:55:30.026Z,10.33
2023-04-06T21:58:02.719Z,10.43
2023-04-06T22:00:34.575Z,10.63
2023-04-06T22:03:08.074Z,10.73
2023-04-06T22:05:40.801Z,10.77
2023-04-06T22:08:25.380Z,10.79
2023-04-06T22:11:10.130Z,10.79
2023-04-06T22:13:42.863Z,10.83
2023-04-06T22:16:15.346Z,10.81
2023-04-06T22:18:48.149Z,10.74
2023-04-06T22:21:20.061Z,10.76
2023-04-06T22:23:52.853Z,10.78
2023-04-06T22:26:24.768Z,10.76
2023-04-06T22:28:57.578Z,10.72
2023-04-06T22:31:29.851Z,10.71
2023-04-06T22:34:02.607Z,10.69
2023-04-06T22:36:35.405Z,10.69
2023-04-06T22:39:07.759Z,10.70
2023-04-06T22:41:39.694Z,10.69
2023-04-06T22:44:15.139Z,10.67
2023-04-06T22:46:47.367Z,10.64
2023-04-06T22:49:20.102Z,10.65
2023-04-06T22:51:52.013Z,10.63
2023-04-06T22:54:25.145Z,10.60
2023-04-06T22:56:57.402Z,10.55
2023-04-06T22:59:30.250Z,10.57
2023-04-06T23:04:55.773Z,10.56
2023-04-06T23:07:28.587Z,10.55
2023-04-06T23:10:00.504Z,10.52
2023-04-06T23:12:33.914Z,10.53
2023-04-06T23:15:07.347Z,10.50
2023-04-06T23:17:39.795Z,10.49
2023-04-06T23:20:14.539Z,10.51
2023-04-06T23:22:47.130Z,10.49
2023-04-06T23:25:19.894Z,10.46
2023-04-06T23:27:52.694Z,10.43
2023-04-06T23:30:24.654Z,10.45
2023-04-06T23:32:58.014Z,10.44
2023-04-06T23:35:31.081Z,10.40
2023-04-06T23:38:03.446Z,10.40
2023-04-06T23:40:38.346Z,10.38
2023-04-06T23:43:11.160Z,10.34
2023-04-06T23:45:43.281Z,10.33
2023-04-06T23:48:16.816Z,10.35
2023-04-06T23:50:48.669Z,10.34
2023-04-06T23:53:21.753Z,10.37
2023-04-06T23:55:54.534Z,10.34
2023-04-06T23:58:27.275Z,10.31
